createdAt,value
2018-12-30T00:01:48.399Z,69.42
2018-12-30T00:04:20.175Z,65.22
2018-12-30T00:06:51.735Z,75.42
2018-12-30T00:09:23.201Z,78.20
2018-12-30T00:11:54.373Z,65.97
2018-12-30T00:14:25.765Z,65.78
2018-12-30T00:16:58.899Z,68.40
2018-12-30T00:19:30.137Z,73.97
2018-12-30T00:22:01.391Z,80.57
2018-12-30T00:24:33.014Z,76.67
2018-12-30T00:27:06.211Z,75.57
2018-12-30T00:29:37.536Z,77.67
2018-12-30T00:32:08.728Z,68.03
2018-12-30T00:34:40.079Z,63.83
2018-12-30T00:37:11.287Z,75.60
2018-12-30T00:39:42.759Z,65.43
2018-12-30T00:42:14.061Z,70.00
2018-12-30T00:44:45.507Z,75.53
2018-12-30T00:47:16.916Z,67.67
2018-12-30T00:49:48.249Z,66.57
2018-12-30T00:52:19.460Z,70.72
2018-12-30T00:54:51.287Z,68.40
2018-12-30T00:57:22.505Z,69.17
2018-12-30T00:59:53.862Z,72.23
2018-12-30T01:02:24.965Z,65.13
2018-12-30T01:04:56.380Z,65.03
2018-12-30T01:07:27.654Z,69.43
2018-12-30T01:09:59.367Z,69.40
2018-12-30T01:12:30.459Z,66.57
2018-12-30T01:15:01.742Z,71.90
2018-12-30T01:17:34.433Z,72.23
2018-12-30T01:20:05.787Z,65.23
2018-12-30T01:22:37.173Z,73.53
2018-12-30T01:25:08.458Z,68.27
2018-12-30T01:27:39.704Z,73.50
2018-12-30T01:30:11.070Z,76.33
2018-12-30T01:32:42.621Z,82.57
2018-12-30T01:35:15.016Z,80.17
2018-12-30T01:37:46.128Z,78.63
2018-12-30T01:40:17.382Z,74.53
2018-12-30T01:42:49.824Z,69.40
2018-12-30T01:45:21.048Z,77.90
2018-12-30T01:47:52.214Z,75.57
2018-12-30T01:50:25.192Z,81.63
2018-12-30T01:52:56.364Z,81.33
2018-12-30T01:55:28.009Z,76.33
2018-12-30T01:58:01.193Z,84.43
2018-12-30T02:00:32.437Z,74.43
2018-12-30T02:03:03.586Z,74.83
2018-12-30T02:05:35.280Z,80.23
2018-12-30T02:08:06.374Z,74.63
2018-12-30T02:10:37.834Z,83.97
2018-12-30T02:13:08.986Z,75.13
2018-12-30T02:15:40.283Z,66.90
2018-12-30T02:18:11.450Z,71.90
2018-12-30T02:20:42.688Z,71.53
2018-12-30T02:23:14.651Z,74.60
2018-12-30T02:25:45.821Z,81.50
2018-12-30T02:28:17.764Z,84.13
2018-12-30T02:30:49.012Z,76.10
2018-12-30T02:33:20.227Z,79.03
2018-12-30T02:35:51.387Z,90.63
2018-12-30T02:38:23.443Z,92.70
2018-12-30T02:40:54.844Z,99.73
2018-12-30T02:43:25.924Z,94.80
2018-12-30T02:45:57.194Z,97.00
2018-12-30T02:48:28.878Z,88.52
2018-12-30T02:51:00.221Z,100.63
2018-12-30T02:53:31.394Z,98.40
2018-12-30T02:56:05.077Z,100.90
2018-12-30T02:58:36.923Z,97.87
2018-12-30T03:01:08.583Z,87.87
2018-12-30T03:03:39.781Z,91.40
2018-12-30T03:06:10.929Z,94.87
2018-12-30T03:08:42.083Z,86.30
2018-12-30T03:11:13.332Z,86.93
2018-12-30T03:13:44.432Z,85.63
2018-12-30T03:16:15.948Z,74.80
2018-12-30T03:18:47.073Z,77.20
2018-12-30T03:21:18.311Z,72.10
2018-12-30T03:23:49.772Z,69.50
2018-12-30T03:26:21.078Z,67.13
2018-12-30T03:28:52.184Z,74.20
2018-12-30T03:31:23.822Z,72.97
2018-12-30T03:33:55.284Z,68.83
2018-12-30T03:36:26.634Z,70.50
2018-12-30T03:38:57.740Z,71.90
2018-12-30T03:41:28.941Z,76.17
2018-12-30T03:44:00.052Z,71.03
2018-12-30T03:46:31.409Z,66.53
2018-12-30T03:49:02.518Z,66.67
2018-12-30T03:51:33.874Z,71.10
2018-12-30T03:54:04.978Z,65.60
2018-12-30T03:56:36.324Z,56.17
2018-12-30T03:59:07.470Z,56.17
2018-12-30T04:01:40.123Z,65.37
2018-12-30T04:04:12.488Z,66.83
2018-12-30T04:06:45.413Z,66.67
2018-12-30T04:09:16.519Z,57.70
2018-12-30T04:11:47.862Z,65.10
2018-12-30T04:14:19.296Z,62.87
2018-12-30T04:16:52.409Z,64.50
2018-12-30T04:19:23.502Z,61.13
2018-12-30T04:21:54.701Z,62.67
2018-12-30T04:24:25.993Z,59.33
2018-12-30T04:26:57.495Z,56.13
2018-12-30T04:29:28.581Z,60.93
2018-12-30T04:32:02.337Z,67.97
2018-12-30T04:34:33.439Z,74.90
2018-12-30T04:37:04.661Z,62.87
2018-12-30T04:39:37.765Z,60.57
2018-12-30T04:42:09.070Z,70.33
2018-12-30T04:44:40.265Z,63.87
2018-12-30T04:47:11.499Z,71.73
2018-12-30T04:49:42.686Z,66.33
2018-12-30T04:52:13.925Z,66.27
2018-12-30T04:54:45.026Z,61.23
2018-12-30T04:57:17.562Z,66.53
2018-12-30T04:59:48.681Z,69.60
2018-12-30T05:02:19.822Z,70.40
2018-12-30T05:04:50.935Z,74.23
2018-12-30T05:07:22.109Z,76.03
2018-12-30T05:09:53.241Z,72.40
2018-12-30T05:12:24.547Z,72.53
2018-12-30T05:14:55.646Z,71.77
2018-12-30T05:17:26.885Z,71.90
2018-12-30T05:19:59.033Z,76.27
2018-12-30T05:22:33.898Z,71.57
2018-12-30T05:25:03.315Z,71.77
2018-12-30T05:27:34.552Z,75.27
2018-12-30T05:30:05.891Z,78.17
2018-12-30T05:32:37.189Z,67.33
2018-12-30T05:35:08.287Z,68.17
2018-12-30T05:37:39.638Z,64.43
2018-12-30T05:40:10.766Z,68.20
2018-12-30T05:42:41.986Z,70.37
2018-12-30T05:45:13.092Z,63.73
2018-12-30T05:47:44.428Z,67.20
2018-12-30T05:50:15.525Z,62.00
2018-12-30T05:52:46.723Z,65.63
2018-12-30T05:55:17.829Z,59.60
2018-12-30T05:57:49.128Z,59.27
2018-12-30T06:00:20.235Z,62.67
2018-12-30T06:02:51.436Z,61.97
2018-12-30T06:05:22.618Z,60.23
2018-12-30T06:07:53.870Z,76.93
2018-12-30T06:10:24.983Z,71.30
2018-12-30T06:12:56.209Z,65.13
2018-12-30T06:15:27.325Z,65.37
2018-12-30T06:17:59.065Z,64.53
2018-12-30T06:20:30.169Z,58.60
2018-12-30T06:23:01.651Z,60.80
2018-12-30T06:25:32.905Z,61.27
2018-12-30T06:28:04.316Z,66.03
2018-12-30T06:30:35.435Z,64.90
2018-12-30T06:33:06.701Z,64.00
2018-12-30T06:35:38.678Z,62.00
2018-12-30T06:38:09.904Z,74.53
2018-12-30T06:40:41.009Z,68.40
2018-12-30T06:43:12.188Z,75.43
2018-12-30T06:45:43.313Z,82.50
2018-12-30T06:48:14.627Z,76.73
2018-12-30T06:50:45.748Z,83.57
2018-12-30T06:53:16.976Z,77.60
2018-12-30T06:55:48.074Z,76.77
2018-12-30T06:58:19.489Z,78.47
2018-12-30T07:00:50.762Z,67.67
2018-12-30T07:03:21.925Z,76.70
2018-12-30T07:05:53.057Z,71.20
2018-12-30T07:08:24.312Z,81.80
2018-12-30T07:10:55.461Z,81.20
2018-12-30T07:13:26.773Z,78.50
2018-12-30T07:15:57.890Z,72.40
2018-12-30T07:18:29.138Z,76.37
2018-12-30T07:21:00.242Z,81.50
2018-12-30T07:23:31.425Z,73.03
2018-12-30T07:26:02.692Z,63.90
2018-12-30T07:28:33.856Z,79.17
2018-12-30T07:31:04.923Z,80.23
2018-12-30T07:33:36.087Z,84.53
2018-12-30T07:36:07.495Z,86.93
2018-12-30T07:38:38.669Z,76.30
2018-12-30T07:41:09.745Z,86.40
2018-12-30T07:43:41.079Z,78.80
2018-12-30T07:46:12.141Z,88.17
2018-12-30T07:48:43.483Z,77.33
2018-12-30T07:51:15.002Z,90.37
2018-12-30T07:53:46.687Z,86.70
2018-12-30T07:56:17.771Z,83.93
2018-12-30T07:58:49.081Z,80.30
2018-12-30T08:01:20.164Z,76.93
2018-12-30T08:03:52.805Z,81.00
2018-12-30T08:06:23.949Z,73.50
2018-12-30T08:08:55.253Z,79.10
2018-12-30T08:11:26.367Z,72.13
2018-12-30T08:13:57.795Z,81.27
2018-12-30T08:16:29.049Z,83.23
2018-12-30T08:19:00.375Z,81.13
2018-12-30T08:21:31.488Z,81.27
2018-12-30T08:24:02.770Z,70.47
2018-12-30T08:26:34.204Z,77.80
2018-12-30T08:29:05.563Z,81.47
2018-12-30T08:31:36.721Z,79.80
2018-12-30T08:34:08.061Z,71.00
2018-12-30T08:36:39.143Z,76.53
2018-12-30T08:39:10.556Z,74.20
2018-12-30T08:41:42.023Z,68.40
2018-12-30T08:44:13.380Z,80.93
2018-12-30T08:46:44.460Z,75.40
2018-12-30T08:49:15.829Z,67.87
2018-12-30T08:51:46.900Z,71.30
2018-12-30T08:54:18.326Z,82.00
2018-12-30T08:56:49.508Z,74.13
2018-12-30T08:59:20.919Z,70.07
2018-12-30T09:01:52.151Z,74.33
2018-12-30T09:04:23.408Z,72.03
2018-12-30T09:06:54.710Z,78.37
2018-12-30T09:09:25.928Z,81.23
2018-12-30T09:11:57.280Z,82.90
2018-12-30T09:14:28.926Z,71.33
2018-12-30T09:17:00.144Z,76.60
2018-12-30T09:19:31.642Z,78.60
2018-12-30T09:22:02.832Z,70.53
2018-12-30T09:24:34.022Z,72.17
2018-12-30T09:27:05.388Z,71.70
2018-12-30T09:29:36.689Z,79.10
2018-12-30T09:32:07.777Z,70.37
2018-12-30T09:34:39.278Z,69.03
2018-12-30T09:37:10.376Z,73.23
2018-12-30T09:39:42.795Z,76.03
2018-12-30T09:42:16.182Z,72.50
2018-12-30T09:44:47.553Z,67.00
2018-12-30T09:47:18.645Z,74.20
2018-12-30T09:49:50.113Z,71.77
2018-12-30T09:52:22.994Z,69.33
2018-12-30T09:54:54.312Z,76.53
2018-12-30T09:57:25.420Z,66.20
2018-12-30T09:59:56.864Z,69.90
2018-12-30T10:02:27.992Z,71.90
2018-12-30T10:04:59.445Z,76.63
2018-12-30T10:07:30.521Z,75.10
2018-12-30T10:10:01.876Z,79.40
2018-12-30T10:12:32.942Z,81.43
2018-12-30T10:15:09.680Z,74.50
2018-12-30T10:17:37.048Z,78.90
2018-12-30T10:20:08.624Z,77.27
2018-12-30T10:22:39.714Z,80.73
2018-12-30T10:25:11.607Z,73.73
2018-12-30T10:27:43.322Z,70.00
2018-12-30T10:30:14.537Z,75.80
2018-12-30T10:32:46.006Z,78.87
2018-12-30T10:35:17.325Z,84.47
2018-12-30T10:37:48.417Z,83.50
2018-12-30T10:40:20.672Z,85.77
2018-12-30T10:42:51.776Z,74.23
2018-12-30T10:45:23.164Z,74.53
2018-12-30T10:47:54.219Z,80.70
2018-12-30T10:50:25.562Z,72.70
2018-12-30T10:52:56.926Z,71.33
2018-12-30T10:55:28.276Z,78.13
2018-12-30T10:57:59.423Z,74.07
2018-12-30T11:00:30.606Z,70.70
2018-12-30T11:03:01.720Z,75.50
2018-12-30T11:05:33.436Z,67.90
2018-12-30T11:08:04.616Z,63.77
2018-12-30T11:10:35.953Z,71.50
2018-12-30T11:13:07.058Z,71.83
2018-12-30T11:15:38.234Z,68.83
2018-12-30T11:18:09.326Z,64.07
2018-12-30T11:20:40.928Z,65.40
2018-12-30T11:23:13.190Z,64.47
2018-12-30T11:25:44.531Z,72.27
2018-12-30T11:28:15.858Z,61.57
2018-12-30T11:30:47.233Z,65.40
2018-12-30T11:33:19.730Z,68.17
2018-12-30T11:35:51.078Z,63.37
2018-12-30T11:38:22.160Z,61.20
2018-12-30T11:40:53.416Z,62.93
2018-12-30T11:43:24.546Z,70.67
2018-12-30T11:45:55.934Z,61.67
2018-12-30T11:48:27.425Z,63.90
2018-12-30T11:50:58.837Z,66.07
2018-12-30T11:53:30.094Z,61.47
2018-12-30T11:56:01.348Z,61.13
2018-12-30T11:58:33.596Z,69.10
2018-12-30T12:01:05.052Z,60.83
2018-12-30T12:03:36.220Z,60.40
2018-12-30T12:06:07.460Z,59.43
2018-12-30T12:08:40.572Z,57.50
2018-12-30T12:11:11.776Z,68.53
2018-12-30T12:13:42.885Z,61.90
2018-12-30T12:16:14.278Z,55.87
2018-12-30T12:18:45.451Z,62.13
2018-12-30T12:21:16.736Z,63.60
2018-12-30T12:23:47.827Z,62.73
2018-12-30T12:26:19.141Z,58.13
2018-12-30T12:28:50.514Z,57.40
2018-12-30T12:31:21.837Z,64.07
2018-12-30T12:33:52.976Z,63.10
2018-12-30T12:36:32.114Z,58.40
2018-12-30T12:39:22.240Z,63.87
2018-12-30T12:41:54.879Z,59.73
2018-12-30T12:44:26.330Z,60.33
2018-12-30T12:46:57.670Z,59.67
2018-12-30T12:49:28.865Z,57.60
2018-12-30T12:52:00.210Z,57.40
2018-12-30T12:54:32.310Z,57.83
2018-12-30T12:57:03.936Z,61.10
2018-12-30T13:02:28.820Z,59.90
2018-12-30T13:05:00.700Z,54.63
2018-12-30T13:07:32.452Z,54.90
2018-12-30T13:10:04.802Z,56.37
2018-12-30T13:12:36.950Z,56.30
2018-12-30T13:15:09.522Z,50.17
2018-12-30T13:17:41.464Z,55.50
2018-12-30T13:20:13.178Z,50.23
2018-12-30T13:22:45.280Z,52.13
2018-12-30T13:25:16.985Z,59.17
2018-12-30T13:27:49.128Z,61.83
2018-12-30T13:30:20.729Z,55.47
2018-12-30T13:32:51.884Z,57.80
2018-12-30T13:35:23.000Z,59.67
2018-12-30T13:37:54.144Z,52.87
2018-12-30T13:40:25.283Z,53.60
2018-12-30T13:42:56.461Z,61.43
2018-12-30T13:45:29.020Z,66.20
2018-12-30T13:48:00.728Z,57.23
2018-12-30T13:50:32.002Z,60.47
2018-12-30T13:53:03.354Z,56.80
2018-12-30T13:55:34.526Z,66.60
2018-12-30T13:58:05.974Z,61.60
2018-12-30T14:00:37.211Z,58.07
2018-12-30T14:03:08.536Z,55.40
2018-12-30T14:05:39.774Z,59.50
2018-12-30T14:08:10.962Z,56.03
2018-12-30T14:10:42.124Z,57.10
2018-12-30T14:13:13.435Z,56.63
2018-12-30T14:15:50.837Z,46.40
2018-12-30T14:18:18.309Z,55.10
2018-12-30T14:20:49.642Z,54.77
2018-12-30T14:23:20.937Z,58.03
2018-12-30T14:25:52.251Z,56.73
2018-12-30T14:28:23.910Z,54.47
2018-12-30T14:30:55.596Z,49.27
2018-12-30T14:33:27.234Z,51.63
2018-12-30T14:35:58.541Z,53.37
2018-12-30T14:38:29.854Z,49.67
2018-12-30T14:41:01.350Z,49.27
2018-12-30T14:43:33.586Z,58.83
2018-12-30T14:46:05.396Z,53.30
2018-12-30T14:48:36.826Z,48.43
2018-12-30T14:51:08.197Z,59.60
2018-12-30T14:53:40.105Z,52.93
2018-12-30T14:56:11.486Z,52.50
2018-12-30T14:58:42.917Z,48.37
2018-12-30T15:01:15.200Z,49.30
2018-12-30T15:03:46.760Z,52.60
2018-12-30T15:06:18.394Z,48.70
2018-12-30T15:08:49.793Z,49.77
2018-12-30T15:11:21.184Z,52.63
2018-12-30T15:13:52.660Z,47.07
2018-12-30T15:16:24.712Z,56.83
2018-12-30T15:18:56.325Z,48.43
2018-12-30T15:21:27.747Z,48.30
2018-12-30T15:23:59.827Z,47.80
2018-12-30T15:26:31.380Z,48.27
2018-12-30T15:29:03.090Z,44.10
2018-12-30T15:31:34.450Z,42.47
2018-12-30T15:34:05.572Z,43.43
2018-12-30T15:36:36.963Z,43.80
2018-12-30T15:39:08.973Z,46.03
2018-12-30T15:41:40.162Z,44.20
2018-12-30T15:44:11.374Z,42.57
2018-12-30T15:46:43.655Z,40.30
2018-12-30T15:49:14.806Z,42.97
2018-12-30T15:51:45.998Z,41.37
2018-12-30T15:54:17.212Z,41.60
2018-12-30T15:56:48.430Z,37.17
2018-12-30T15:59:19.564Z,37.60
2018-12-30T16:01:50.833Z,34.20
2018-12-30T16:04:22.070Z,39.30
2018-12-30T16:06:53.317Z,37.40
2018-12-30T16:09:24.455Z,44.00
2018-12-30T16:11:55.629Z,34.77
2018-12-30T16:14:26.777Z,36.77
2018-12-30T16:16:58.004Z,39.53
2018-12-30T16:19:29.188Z,36.77
2018-12-30T16:22:02.579Z,31.27
2018-12-30T16:24:45.367Z,38.03
2018-12-30T16:27:16.493Z,35.10
2018-12-30T16:29:48.770Z,35.60
2018-12-30T16:32:20.052Z,38.57
2018-12-30T16:34:51.125Z,39.43
2018-12-30T16:37:22.485Z,38.23
2018-12-30T16:39:53.583Z,41.67
2018-12-30T16:42:24.717Z,44.20
2018-12-30T16:44:55.773Z,42.70
2018-12-30T16:47:26.903Z,41.93
2018-12-30T16:49:58.037Z,43.73
2018-12-30T16:52:29.219Z,42.57
2018-12-30T16:55:00.300Z,38.37
2018-12-30T16:57:31.435Z,40.90
2018-12-30T17:00:02.508Z,39.77
2018-12-30T17:02:33.692Z,39.37
2018-12-30T17:05:05.836Z,41.03
2018-12-30T17:07:37.441Z,38.47
2018-12-30T17:10:09.526Z,34.90
2018-12-30T17:12:40.636Z,33.30
2018-12-30T17:15:11.776Z,46.97
2018-12-30T17:17:42.901Z,42.33
2018-12-30T17:20:14.002Z,43.93
2018-12-30T17:22:45.139Z,47.40
2018-12-30T17:25:17.312Z,51.57
2018-12-30T17:27:48.410Z,44.87
2018-12-30T17:30:19.564Z,44.60
2018-12-30T17:32:50.995Z,43.80
2018-12-30T17:35:22.089Z,39.47
2018-12-30T17:37:53.162Z,32.13
2018-12-30T17:40:24.296Z,38.23
2018-12-30T17:42:55.451Z,41.67
2018-12-30T17:45:26.514Z,35.60
2018-12-30T17:47:58.400Z,36.63
2018-12-30T17:50:29.496Z,34.40
2018-12-30T17:53:00.624Z,35.80
2018-12-30T17:55:32.881Z,32.50
2018-12-30T17:58:04.023Z,35.30
2018-12-30T18:00:35.072Z,34.10
2018-12-30T18:03:06.290Z,34.83
2018-12-30T18:05:38.329Z,28.60
2018-12-30T18:08:09.417Z,32.23
2018-12-30T18:10:40.496Z,28.20
2018-12-30T18:13:11.626Z,31.80
2018-12-30T18:15:42.733Z,35.87
2018-12-30T18:18:13.866Z,36.80
2018-12-30T18:20:44.925Z,35.13
2018-12-30T18:23:16.027Z,38.50
2018-12-30T18:25:47.117Z,32.30
2018-12-30T18:28:18.314Z,31.10
2018-12-30T18:30:49.379Z,34.97
2018-12-30T18:33:20.761Z,44.77
2018-12-30T18:35:51.857Z,44.63
2018-12-30T18:38:23.098Z,46.50
2018-12-30T18:40:54.261Z,42.20
2018-12-30T18:43:25.408Z,43.73
2018-12-30T18:45:56.556Z,45.63
2018-12-30T18:48:27.776Z,43.37
2018-12-30T18:50:58.835Z,45.37
2018-12-30T18:53:29.969Z,52.00
2018-12-30T18:56:06.698Z,47.13
2018-12-30T18:58:33.910Z,46.70
2018-12-30T19:01:05.004Z,48.30
2018-12-30T19:03:37.108Z,56.57
2018-12-30T19:06:09.337Z,51.53
2018-12-30T19:08:40.479Z,43.33
2018-12-30T19:11:11.643Z,45.23
2018-12-30T19:13:42.743Z,44.77
2018-12-30T19:16:13.868Z,41.57
2018-12-30T19:18:45.034Z,38.03
2018-12-30T19:21:16.155Z,53.93
2018-12-30T19:23:47.334Z,46.93
2018-12-30T19:26:18.478Z,47.70
2018-12-30T19:28:50.631Z,44.60
2018-12-30T19:31:33.092Z,46.67
2018-12-30T19:34:04.323Z,45.50
2018-12-30T19:36:35.423Z,50.03
2018-12-30T19:39:07.995Z,45.40
2018-12-30T19:41:39.220Z,48.60
2018-12-30T19:44:10.339Z,42.00
2018-12-30T19:46:41.497Z,42.57
2018-12-30T19:49:12.622Z,45.43
2018-12-30T19:51:43.708Z,40.73
2018-12-30T19:54:14.769Z,42.73
2018-12-30T19:56:45.915Z,36.47
2018-12-30T19:59:28.803Z,39.53
2018-12-30T20:01:59.909Z,48.43
2018-12-30T20:04:30.988Z,46.33
2018-12-30T20:07:03.597Z,47.60
2018-12-30T20:09:34.685Z,47.87
2018-12-30T20:12:05.810Z,45.27
2018-12-30T20:14:36.886Z,40.33
2018-12-30T20:17:08.037Z,40.37
2018-12-30T20:19:39.103Z,39.30
2018-12-30T20:22:10.300Z,43.33
2018-12-30T20:24:41.400Z,35.43
2018-12-30T20:27:12.570Z,38.30
2018-12-30T20:29:43.672Z,47.50
2018-12-30T20:32:14.936Z,41.67
2018-12-30T20:34:47.357Z,44.37
2018-12-30T20:37:18.452Z,42.10
2018-12-30T20:39:49.584Z,44.00
2018-12-30T20:42:21.787Z,42.80
2018-12-30T20:44:52.928Z,45.90
2018-12-30T20:47:23.993Z,42.93
2018-12-30T20:49:55.297Z,40.50
2018-12-30T20:52:26.373Z,44.63
2018-12-30T20:54:57.501Z,43.70
2018-12-30T20:57:28.612Z,39.97
2018-12-30T20:59:59.720Z,43.53
2018-12-30T21:02:30.792Z,41.30
2018-12-30T21:05:01.937Z,39.97
2018-12-30T21:07:33.260Z,37.83
2018-12-30T21:10:04.503Z,34.03
2018-12-30T21:12:35.583Z,37.23
2018-12-30T21:15:07.315Z,42.10
2018-12-30T21:17:38.527Z,41.93
2018-12-30T21:20:09.789Z,38.77
2018-12-30T21:22:40.919Z,43.20
2018-12-30T21:25:12.130Z,43.10
2018-12-30T21:27:43.333Z,42.10
2018-12-30T21:30:14.513Z,42.90
2018-12-30T21:32:45.561Z,47.33
2018-12-30T21:35:16.953Z,44.73
2018-12-30T21:37:48.253Z,38.53
2018-12-30T21:40:19.351Z,45.30
2018-12-30T21:42:50.472Z,43.93
2018-12-30T21:45:21.553Z,41.10
2018-12-30T21:47:52.759Z,38.70
2018-12-30T21:50:23.831Z,44.50
2018-12-30T21:52:54.967Z,40.50
2018-12-30T21:55:26.148Z,37.63
2018-12-30T21:57:57.579Z,40.07
2018-12-30T22:00:28.729Z,37.57
2018-12-30T22:02:59.841Z,34.80
2018-12-30T22:05:30.921Z,36.40
2018-12-30T22:08:02.192Z,32.57
2018-12-30T22:10:33.356Z,32.30
2018-12-30T22:13:04.532Z,33.57
2018-12-30T22:15:35.668Z,32.30
2018-12-30T22:18:06.874Z,39.63
2018-12-30T22:20:38.178Z,36.67
2018-12-30T22:23:09.367Z,39.13
2018-12-30T22:25:42.150Z,36.43
2018-12-30T22:28:13.339Z,39.77
2018-12-30T22:30:44.438Z,39.23
2018-12-30T22:33:15.529Z,37.60
2018-12-30T22:35:46.875Z,41.33
2018-12-30T22:38:17.945Z,38.03
2018-12-30T22:40:49.468Z,37.40
2018-12-30T22:43:20.916Z,37.80
2018-12-30T22:45:51.992Z,33.73
2018-12-30T22:48:23.082Z,38.57
2018-12-30T22:50:54.189Z,38.87
2018-12-30T22:53:25.454Z,39.20
2018-12-30T22:55:56.562Z,41.40
2018-12-30T22:58:27.635Z,38.30
2018-12-30T23:01:01.264Z,41.13
2018-12-30T23:03:32.830Z,35.37
2018-12-30T23:06:04.001Z,39.77
2018-12-30T23:08:35.217Z,42.60
2018-12-30T23:11:06.435Z,44.23
2018-12-30T23:13:37.669Z,42.63
2018-12-30T23:16:08.779Z,45.57
2018-12-30T23:18:39.970Z,39.37
2018-12-30T23:21:11.229Z,43.40
2018-12-30T23:23:42.328Z,39.10
2018-12-30T23:26:13.506Z,42.90
2018-12-30T23:28:44.627Z,40.50
2018-12-30T23:31:15.780Z,38.93
2018-12-30T23:33:46.888Z,42.40
2018-12-30T23:36:18.381Z,38.20
2018-12-30T23:38:49.466Z,39.00
2018-12-30T23:41:20.585Z,39.57
2018-12-30T23:43:51.683Z,42.90
2018-12-30T23:46:22.794Z,44.07
2018-12-30T23:48:53.877Z,41.93
2018-12-30T23:51:24.985Z,42.17
2018-12-30T23:53:56.081Z,39.03
2018-12-30T23:56:27.179Z,40.13
2018-12-30T23:58:58.261Z,39.90
